Time;durP1;ratioP1;P1;durP2;ratioP2;P2;SDS_P1;SDS_P2;PMS_P1;PMS_P2;Temp;Humidity;BMP_temperature;BMP_pressure;BME280_temperature;BME280_humidity;BME280_pressure;Samples;Min_cycle;Max_cycle;Signal;HPM_P1;HPM_P2
2023/05/10 00:01:52;;;;;;;4.68;2.70;;;;;;;;;;5097315;28;20051;-62
2023/05/10 00:04:18;;;;;;;4.30;2.90;;;20.90;93.50;;;;;;5090705;28;20075;-62
2023/05/10 00:06:43;;;;;;;4.78;2.42;;;21.10;93.50;;;;;;5091942;28;20098;-60
2023/05/10 00:09:09;;;;;;;4.80;2.70;;;20.90;93.20;;;;;;5093604;28;20051;-62
2023/05/10 00:11:35;;;;;;;4.03;2.60;;;21.20;93.50;;;;;;5102477;28;20040;-64
2023/05/10 00:14:01;;;;;;;4.95;3.15;;;20.90;93.40;;;;;;5100019;28;20036;-60
2023/05/10 00:16:26;;;;;;;4.65;2.80;;;21.00;93.40;;;;;;5091009;28;20432;-61
2023/05/10 00:18:52;;;;;;;4.97;2.83;;;21.00;93.50;;;;;;5091953;28;20189;-61
2023/05/10 00:21:18;;;;;;;5.22;2.83;;;20.90;93.50;;;;;;5092347;28;20592;-61
2023/05/10 00:23:44;;;;;;;4.45;2.95;;;21.00;93.40;;;;;;5111603;28;20088;-60
2023/05/10 00:26:10;;;;;;;4.40;2.58;;;;;;;;;;5101959;28;20178;-61
2023/05/10 00:28:36;;;;;;;5.40;3.20;;;21.00;93.40;;;;;;5095533;28;20036;-63
2023/05/10 00:31:01;;;;;;;4.50;2.97;;;21.00;93.40;;;;;;5098163;28;20043;-61
2023/05/10 00:33:27;;;;;;;6.00;2.65;;;21.00;93.40;;;;;;5094360;28;20062;-61
2023/05/10 00:35:53;;;;;;;5.20;3.10;;;21.00;93.40;;;;;;5108991;28;20058;-60
2023/05/10 00:38:18;;;;;;;4.68;2.90;;;21.10;93.40;;;;;;5115311;28;20044;-61
2023/05/10 00:40:44;;;;;;;5.18;3.30;;;21.00;93.40;;;;;;5101685;28;20047;-60
2023/05/10 00:43:10;;;;;;;4.85;3.10;;;20.90;93.40;;;;;;5075598;28;20097;-60
2023/05/10 00:45:36;;;;;;;5.22;3.22;;;21.10;93.40;;;;;;5106728;28;20501;-62
2023/05/10 00:48:02;;;;;;;4.88;3.05;;;21.00;93.40;;;;;;5096065;28;20074;-62
2023/05/10 00:50:28;;;;;;;4.90;3.10;;;21.00;93.40;;;;;;5088630;28;20425;-61
2023/05/10 00:52:54;;;;;;;5.60;2.90;;;21.00;93.40;;;;;;5068859;28;20048;-60
2023/05/10 00:55:20;;;;;;;5.03;3.00;;;21.00;93.40;;;;;;5076830;28;20048;-61
2023/05/10 00:57:46;;;;;;;5.00;2.80;;;20.90;93.40;;;;;;5084985;28;20431;-63
2023/05/10 01:00:12;;;;;;;5.13;3.00;;;21.00;93.40;;;;;;5095773;28;20043;-62
2023/05/10 01:02:38;;;;;;;4.50;2.55;;;21.10;93.20;;;;;;5079509;28;20036;-61
2023/05/10 01:05:05;;;;;;;5.03;2.63;;;;;;;;;;5059269;28;20543;-62
2023/05/10 01:07:30;;;;;;;4.75;2.83;;;21.00;93.30;;;;;;5094462;28;20059;-62
2023/05/10 01:09:56;;;;;;;4.00;2.00;;;;;;;;;;5100603;28;20485;-63
2023/05/10 01:12:22;;;;;;;3.60;2.10;;;21.10;93.40;;;;;;5098034;28;20048;-61
2023/05/10 01:14:48;;;;;;;4.13;2.15;;;20.90;93.20;;;;;;5077153;28;20044;-61
2023/05/10 01:17:14;;;;;;;3.10;1.92;;;21.00;93.30;;;;;;5110613;28;20044;-61
2023/05/10 01:19:40;;;;;;;3.47;2.03;;;20.90;93.30;;;;;;5112577;28;20097;-61
2023/05/10 01:22:32;;;;;;;3.45;1.80;;;21.00;93.30;;;;;;5100378;28;20041;-62
2023/05/10 01:25:06;;;;;;;3.53;1.83;;;21.30;91.30;;;;;;5068560;28;20082;-60
2023/05/10 01:28:09;;;;;;;3.15;1.73;;;20.70;92.50;;;;;;5076052;28;20047;-61
2023/05/10 01:30:42;;;;;;;3.50;1.85;;;21.10;91.90;;;;;;5078451;28;20047;-61
2023/05/10 01:33:33;;;;;;;3.28;1.95;;;21.00;92.90;;;;;;5068418;28;20101;-62
2023/05/10 01:36:09;;;;;;;4.70;2.15;;;20.80;93.10;;;;;;5086843;28;20076;-61
2023/05/10 01:38:51;;;;;;;3.70;2.10;;;21.00;93.20;;;;;;5082562;28;20046;-62
2023/05/10 01:41:33;;;;;;;2.88;1.80;;;21.00;93.20;;;;;;5070731;28;20083;-60
2023/05/10 01:44:58;;;;;;;3.30;2.10;;;20.90;93.20;;;;;;5089897;28;20040;-62
2023/05/10 01:47:47;;;;;;;3.70;2.13;;;20.80;93.10;;;;;;4963634;28;20065;-61
2023/05/10 01:50:17;;;;;;;4.07;2.20;;;20.70;93.10;;;;;;4990189;28;20050;-61
2023/05/10 01:52:44;;;;;;;4.85;2.20;;;;;;;;;;4991355;28;20066;-61
2023/05/10 01:55:13;;;;;;;4.55;2.40;;;21.10;93.20;;;;;;4991920;28;20447;-61
2023/05/10 01:57:40;;;;;;;3.90;2.20;;;20.80;93.10;;;;;;4991707;28;20124;-65
2023/05/10 02:00:06;;;;;;;3.65;1.90;;;20.90;93.10;;;;;;4987132;28;20049;-61
2023/05/10 02:02:44;;;;;;;4.57;2.00;;;21.10;93.10;;;;;;5009338;28;20058;-61
2023/05/10 02:05:10;;;;;;;3.60;2.38;;;20.90;93.10;;;;;;4991685;28;20066;-62
2023/05/10 02:07:36;;;;;;;4.43;2.35;;;21.00;93.10;;;;;;5002637;28;20046;-61
2023/05/10 02:10:04;;;;;;;3.63;2.25;;;20.90;93.10;;;;;;5008698;28;20053;-60
2023/05/10 02:12:30;;;;;;;4.45;2.28;;;21.00;92.20;;;;;;4993790;28;20053;-62
2023/05/10 02:14:55;;;;;;;3.40;2.17;;;20.80;93.00;;;;;;4999412;28;20524;-61
2023/05/10 02:17:21;;;;;;;3.80;2.40;;;20.80;93.00;;;;;;4997877;28;20045;-62
2023/05/10 02:19:47;;;;;;;4.13;2.20;;;20.70;93.00;;;;;;4978652;28;20132;-61
2023/05/10 02:22:13;;;;;;;3.85;2.40;;;;;;;;;;5013088;28;20450;-61
2023/05/10 02:24:39;;;;;;;3.63;2.10;;;;;;;;;;5097087;28;20398;-61
2023/05/10 02:27:05;;;;;;;4.50;2.20;;;20.90;92.50;;;;;;5074634;28;20048;-62
2023/05/10 02:29:31;;;;;;;4.30;2.53;;;20.80;93.00;;;;;;5076299;28;20052;-63
2023/05/10 02:31:57;;;;;;;3.40;2.05;;;21.20;93.00;;;;;;5088529;28;20044;-62
2023/05/10 02:34:23;;;;;;;4.80;2.50;;;21.00;93.00;;;;;;5087607;28;20047;-61
2023/05/10 02:36:48;;;;;;;3.50;2.10;;;20.80;92.20;;;;;;5092843;28;20046;-60
2023/05/10 02:39:14;;;;;;;3.95;2.35;;;21.00;92.90;;;;;;5107636;28;20035;-60
2023/05/10 02:41:40;;;;;;;4.20;2.28;;;20.80;91.20;;;;;;5095125;28;20082;-61
2023/05/10 02:44:07;;;;;;;5.07;2.47;;;20.80;92.90;;;;;;5093977;28;20106;-61
2023/05/10 02:46:33;;;;;;;3.58;2.08;;;20.90;92.90;;;;;;5072388;28;20055;-61
2023/05/10 02:48:59;;;;;;;6.40;2.33;;;20.90;93.00;;;;;;5073948;28;20424;-61
2023/05/10 02:51:25;;;;;;;5.10;2.55;;;21.00;91.90;;;;;;5091343;28;20541;-62
2023/05/10 02:53:51;;;;;;;4.90;2.60;;;20.90;93.00;;;;;;5078365;28;20520;-62
2023/05/10 02:56:28;;;;;;;3.88;2.25;;;21.00;91.00;;;;;;5071318;28;20048;-61
2023/05/10 02:58:54;;;;;;;4.28;2.42;;;20.80;92.90;;;;;;5054717;28;20044;-62
2023/05/10 03:01:20;;;;;;;3.80;2.40;;;20.70;92.90;;;;;;5054524;28;20052;-61
2023/05/10 03:03:46;;;;;;;5.15;2.53;;;20.90;92.80;;;;;;5073894;28;20515;-62
2023/05/10 03:06:12;;;;;;;4.93;2.30;;;21.00;92.90;;;;;;5070706;28;21240;-60
2023/05/10 03:08:38;;;;;;;3.88;2.25;;;20.80;92.90;;;;;;5074158;28;20048;-61
2023/05/10 03:11:10;;;;;;;4.20;2.33;;;20.80;92.90;;;;;;5092397;28;20481;-61
2023/05/10 03:13:51;;;;;;;4.07;2.50;;;20.80;92.90;;;;;;5074307;28;20040;-63
2023/05/10 03:16:19;;;;;;;3.97;2.30;;;20.80;91.70;;;;;;5071334;28;20484;-62
2023/05/10 03:19:01;;;;;;;4.07;2.22;;;20.80;92.80;;;;;;5073940;28;20076;-61
2023/05/10 03:21:29;;;;;;;5.45;2.30;;;20.60;92.30;;;;;;5076798;28;20052;-61
2023/05/10 03:24:06;;;;;;;4.18;2.47;;;20.80;92.70;;;;;;5090197;28;20115;-60
2023/05/10 03:26:32;;;;;;;4.28;2.22;;;20.90;92.80;;;;;;5085511;28;20077;-62
2023/05/10 03:28:58;;;;;;;4.93;2.30;;;20.90;92.80;;;;;;5061471;28;20424;-60
2023/05/10 03:31:24;;;;;;;5.72;2.92;;;20.50;92.70;;;;;;5107855;28;20040;-61
2023/05/10 03:33:51;;;;;;;3.58;2.20;;;20.70;92.80;;;;;;5092100;28;20067;-60
2023/05/10 03:36:17;;;;;;;4.10;2.30;;;20.80;92.80;;;;;;5080466;28;20382;-63
2023/05/10 03:38:43;;;;;;;4.15;2.30;;;20.90;92.60;;;;;;5077953;28;20128;-60
2023/05/10 03:41:08;;;;;;;3.63;2.10;;;20.80;92.80;;;;;;5073134;28;20133;-61
2023/05/10 03:43:34;;;;;;;5.07;2.72;;;20.60;92.80;;;;;;5087110;28;20044;-63
2023/05/10 03:46:03;;;;;;;4.20;2.20;;;20.80;92.80;;;;;;5106525;28;20487;-61
2023/05/10 03:48:30;;;;;;;3.53;2.03;;;20.60;92.70;;;;;;5095265;28;20036;-61
2023/05/10 03:50:55;;;;;;;4.80;1.95;;;20.70;92.80;;;;;;5092285;28;20435;-62
2023/05/10 03:53:22;;;;;;;3.97;2.28;;;20.60;92.70;;;;;;5091802;28;20056;-61
2023/05/10 03:55:48;;;;;;;3.45;2.10;;;20.80;92.30;;;;;;5096511;28;20048;-62
2023/05/10 03:58:14;;;;;;;3.35;2.10;;;20.60;92.70;;;;;;5063119;28;20379;-62
2023/05/10 04:00:45;;;;;;;5.40;2.30;;;;;;;;;;5075416;28;20040;-63
2023/05/10 04:03:11;;;;;;;3.90;2.10;;;20.90;92.80;;;;;;5075446;28;20091;-62
2023/05/10 04:05:37;;;;;;;3.67;2.10;;;20.80;92.70;;;;;;5092986;28;20123;-61
2023/05/10 04:08:03;;;;;;;3.78;2.20;;;20.70;92.60;;;;;;5076954;28;20138;-61
2023/05/10 04:10:29;;;;;;;3.67;2.20;;;;;;;;;;5095841;28;20044;-62
2023/05/10 04:12:55;;;;;;;4.13;2.30;;;20.70;92.60;;;;;;5110433;28;20109;-61
2023/05/10 04:15:20;;;;;;;3.90;2.25;;;20.50;92.60;;;;;;5096158;28;20474;-62
2023/05/10 04:17:46;;;;;;;5.68;2.47;;;20.70;92.70;;;;;;5087931;28;20112;-66
2023/05/10 04:20:12;;;;;;;3.30;2.00;;;21.00;92.70;;;;;;5101232;28;20087;-61
2023/05/10 04:22:38;;;;;;;3.47;2.10;;;;;;;;;;5114457;28;20090;-61
2023/05/10 04:25:05;;;;;;;4.13;2.10;;;20.50;91.00;;;;;;5096019;28;20086;-62
2023/05/10 04:27:31;;;;;;;4.20;2.05;;;20.80;92.70;;;;;;5094349;28;20040;-62
2023/05/10 04:29:57;;;;;;;3.78;2.10;;;20.80;92.70;;;;;;5096551;28;20115;-62
2023/05/10 04:32:23;;;;;;;3.92;2.30;;;20.70;92.60;;;;;;5106014;28;20072;-61
2023/05/10 04:34:49;;;;;;;4.10;2.60;;;20.80;92.60;;;;;;5094569;28;20086;-61
2023/05/10 04:37:15;;;;;;;3.38;2.00;;;;;;;;;;5095346;28;20202;-61
2023/05/10 04:39:40;;;;;;;3.85;2.17;;;20.80;92.70;;;;;;5094705;28;20036;-61
2023/05/10 04:42:07;;;;;;;4.30;2.25;;;20.80;92.60;;;;;;5075939;28;20107;-65
2023/05/10 04:44:32;;;;;;;4.45;2.60;;;20.90;92.70;;;;;;5086407;28;20040;-60
2023/05/10 04:46:58;;;;;;;5.18;2.80;;;20.90;92.70;;;;;;5094399;28;20127;-61
2023/05/10 04:49:24;;;;;;;3.47;2.10;;;20.70;92.60;;;;;;5079198;28;20043;-60
2023/05/10 04:51:50;;;;;;;4.60;2.65;;;21.00;91.30;;;;;;5075628;28;20045;-66
2023/05/10 04:54:16;;;;;;;3.78;2.20;;;;;;;;;;5111694;28;20055;-65
2023/05/10 04:56:42;;;;;;;4.55;2.80;;;20.90;92.60;;;;;;5089802;28;20055;-65
2023/05/10 04:59:07;;;;;;;4.35;2.53;;;20.90;92.60;;;;;;5104265;28;20126;-65
2023/05/10 05:01:33;;;;;;;4.53;2.40;;;21.00;92.60;;;;;;5114960;28;20118;-61
2023/05/10 05:03:59;;;;;;;5.07;3.00;;;20.60;92.50;;;;;;5115582;28;20039;-61
2023/05/10 05:06:26;;;;;;;3.60;2.10;;;20.50;92.50;;;;;;5096935;28;20080;-61
2023/05/10 05:08:52;;;;;;;5.20;2.70;;;20.80;92.50;;;;;;5082538;28;20090;-61
2023/05/10 05:11:18;;;;;;;4.68;2.67;;;20.80;92.50;;;;;;5088639;28;20486;-61
2023/05/10 05:13:44;;;;;;;5.05;2.55;;;;;;;;;;5074051;28;20048;-62
2023/05/10 05:16:11;;;;;;;4.70;2.67;;;20.90;92.50;;;;;;5102019;28;20048;-61
2023/05/10 05:18:36;;;;;;;4.97;2.55;;;20.90;92.50;;;;;;5112846;28;20048;-62
2023/05/10 05:21:03;;;;;;;5.13;2.80;;;;;;;;;;5099321;28;20382;-62
2023/05/10 05:23:28;;;;;;;5.45;3.10;;;20.60;92.40;;;;;;5077384;28;20040;-61
2023/05/10 05:25:54;;;;;;;4.85;2.95;;;20.60;92.40;;;;;;5086982;28;20036;-61
2023/05/10 05:28:20;;;;;;;5.22;3.10;;;20.90;92.50;;;;;;5096625;28;20481;-60
2023/05/10 05:30:46;;;;;;;5.35;3.05;;;20.70;92.40;;;;;;5104516;28;20035;-60
2023/05/10 05:33:15;;;;;;;5.00;2.85;;;21.00;91.00;;;;;;5114605;28;20051;-62
2023/05/10 05:35:42;;;;;;;5.40;2.72;;;20.70;92.40;;;;;;5114537;28;20048;-61
2023/05/10 05:38:08;;;;;;;5.15;3.10;;;20.80;92.40;;;;;;5093926;28;20062;-62
2023/05/10 05:40:34;;;;;;;5.32;3.10;;;20.80;91.30;;;;;;5096118;28;20043;-62
2023/05/10 05:43:00;;;;;;;5.65;3.03;;;20.80;92.40;;;;;;5105120;28;20132;-61
2023/05/10 05:45:25;;;;;;;4.85;2.67;;;20.90;92.40;;;;;;5094327;28;20050;-61
2023/05/10 05:47:51;;;;;;;5.63;3.33;;;21.00;92.40;;;;;;5093585;28;20039;-60
2023/05/10 05:50:17;;;;;;;4.05;2.38;;;21.10;92.40;;;;;;5093424;28;20050;-61
2023/05/10 05:52:43;;;;;;;4.63;2.58;;;20.80;90.80;;;;;;5072517;28;20139;-61
2023/05/10 05:55:09;;;;;;;4.80;2.58;;;20.60;92.20;;;;;;5078217;28;20047;-61
2023/05/10 05:57:34;;;;;;;5.60;2.60;;;20.90;92.30;;;;;;5093170;28;20413;-61
2023/05/10 06:00:00;;;;;;;4.78;2.50;;;20.90;92.30;;;;;;5099709;28;20046;-61
2023/05/10 06:02:26;;;;;;;5.10;2.90;;;20.90;92.30;;;;;;5098868;28;20071;-61
2023/05/10 06:04:52;;;;;;;4.95;2.70;;;20.90;92.30;;;;;;5093214;28;20056;-63
2023/05/10 06:07:18;;;;;;;4.40;2.53;;;20.80;92.20;;;;;;5089868;28;20047;-61
2023/05/10 06:09:44;;;;;;;4.03;2.05;;;;;;;;;;5091190;28;20431;-63
2023/05/10 06:12:11;;;;;;;3.70;1.98;;;21.00;92.20;;;;;;5099224;28;20052;-61
2023/05/10 06:14:37;;;;;;;4.93;2.42;;;;;;;;;;5092682;28;20055;-61
2023/05/10 06:17:04;;;;;;;4.43;2.10;;;20.90;92.20;;;;;;5092267;28;20052;-61
2023/05/10 06:19:30;;;;;;;3.97;1.98;;;20.80;91.40;;;;;;5103353;28;20396;-62
2023/05/10 06:21:56;;;;;;;3.30;1.67;;;21.00;92.20;;;;;;5113615;28;20052;-60
2023/05/10 06:24:22;;;;;;;3.85;1.98;;;21.00;92.20;;;;;;5113602;28;20040;-61
2023/05/10 06:26:49;;;;;;;2.78;1.50;;;;;;;;;;5079350;28;20076;-65
2023/05/10 06:29:15;;;;;;;3.08;1.55;;;;;;;;;;5087186;28;20044;-66
2023/05/10 06:31:41;;;;;;;3.55;1.50;;;20.90;92.10;;;;;;5057090;28;20052;-67
2023/05/10 06:34:08;;;;;;;2.60;1.38;;;20.80;92.10;;;;;;5105075;28;20515;-66
2023/05/10 06:36:34;;;;;;;2.03;1.20;;;20.80;92.10;;;;;;5092106;28;20079;-63
2023/05/10 06:39:00;;;;;;;3.67;1.30;;;;;;;;;;5096078;28;20479;-62
2023/05/10 06:41:25;;;;;;;2.55;1.30;;;20.90;92.00;;;;;;5113081;28;20044;-64
2023/05/10 06:43:51;;;;;;;2.70;1.30;;;21.00;91.50;;;;;;5113216;28;20042;-62
2023/05/10 06:46:17;;;;;;;3.33;1.35;;;21.00;92.10;;;;;;5107513;28;20040;-67
2023/05/10 06:48:44;;;;;;;2.97;1.35;;;21.00;92.10;;;;;;5085826;28;20035;-66
2023/05/10 06:51:10;;;;;;;1.85;1.00;;;;;;;;;;5112884;28;20119;-66
2023/05/10 06:53:36;;;;;;;3.15;1.00;;;21.00;92.10;;;;;;5111292;28;20105;-65
2023/05/10 06:56:03;;;;;;;2.30;0.93;;;;;;;;;;5112838;28;20048;-66
2023/05/10 06:58:28;;;;;;;2.28;1.00;;;20.70;92.00;;;;;;5089490;28;20041;-66
2023/05/10 07:00:54;;;;;;;1.60;0.90;;;21.10;92.10;;;;;;5092652;28;20474;-66
2023/05/10 07:03:20;;;;;;;1.45;0.90;;;20.90;92.00;;;;;;5098311;28;20911;-66
2023/05/10 07:05:46;;;;;;;1.90;0.90;;;;;;;;;;5102452;28;20035;-66
2023/05/10 07:08:13;;;;;;;1.67;0.80;;;21.10;92.00;;;;;;5092955;28;20078;-66
2023/05/10 07:10:38;;;;;;;2.03;1.20;;;21.00;92.00;;;;;;5103258;28;20504;-66
2023/05/10 07:13:04;;;;;;;2.90;0.80;;;21.20;92.00;;;;;;5111243;28;20040;-66
2023/05/10 07:15:30;;;;;;;1.30;0.75;;;21.00;91.90;;;;;;5112953;28;20602;-66
2023/05/10 07:17:56;;;;;;;2.00;0.90;;;;;;;;;;5096549;28;20500;-66
2023/05/10 07:20:22;;;;;;;0.85;0.60;;;21.10;91.90;;;;;;5092302;28;20047;-66
2023/05/10 07:22:48;;;;;;;2.22;0.90;;;;;;;;;;5091686;28;20032;-67
2023/05/10 07:25:14;;;;;;;2.53;0.60;;;21.20;91.90;;;;;;5106549;28;20446;-66
2023/05/10 07:27:40;;;;;;;1.10;0.60;;;21.30;91.90;;;;;;5107617;28;20052;-66
2023/05/10 07:30:06;;;;;;;0.60;0.50;;;21.10;91.90;;;;;;5078044;28;20111;-66
2023/05/10 07:32:32;;;;;;;0.65;0.40;;;20.90;91.70;;;;;;5115929;28;20031;-67
2023/05/10 07:34:58;;;;;;;1.20;0.50;;;21.10;91.80;;;;;;5105201;28;20487;-67
2023/05/10 07:37:24;;;;;;;1.25;0.57;;;20.80;91.80;;;;;;5096335;28;20051;-66
2023/05/10 07:39:50;;;;;;;1.08;0.60;;;21.10;91.90;;;;;;5096384;28;20449;-67
2023/05/10 07:42:15;;;;;;;1.00;0.43;;;21.10;91.80;;;;;;5103005;28;20136;-68
2023/05/10 07:44:41;;;;;;;2.97;0.73;;;21.00;91.80;;;;;;5096208;28;20036;-68
2023/05/10 07:47:07;;;;;;;1.23;0.65;;;;;;;;;;5094621;28;20044;-67
2023/05/10 07:49:33;;;;;;;2.08;0.47;;;21.00;91.80;;;;;;5095640;28;20043;-67
2023/05/10 07:51:59;;;;;;;2.65;0.75;;;21.10;91.80;;;;;;5104254;28;20439;-67
2023/05/10 07:54:25;;;;;;;1.70;0.70;;;21.10;91.80;;;;;;5084423;28;20052;-68
2023/05/10 07:56:51;;;;;;;2.33;0.80;;;;;;;;;;5093197;28;20489;-68
2023/05/10 07:59:17;;;;;;;3.13;1.17;;;;;;;;;;5092313;28;20044;-67
2023/05/10 08:01:43;;;;;;;1.98;1.10;;;21.30;90.60;;;;;;5098402;28;20420;-64
2023/05/10 08:04:09;;;;;;;3.40;1.10;;;21.20;91.70;;;;;;5082920;28;20127;-66
2023/05/10 08:06:35;;;;;;;2.78;1.10;;;;;;;;;;5090273;28;20040;-66
2023/05/10 08:09:02;;;;;;;1.40;0.90;;;;;;;;;;5093000;28;20135;-69
2023/05/10 08:11:28;;;;;;;2.03;1.08;;;;;;;;;;5075513;28;20048;-66
2023/05/10 08:13:54;;;;;;;1.88;1.02;;;;;;;;;;5095229;28;20044;-68
2023/05/10 08:16:20;;;;;;;3.67;0.85;;;21.20;91.80;;;;;;5092452;28;20060;-71
2023/05/10 08:18:46;;;;;;;1.88;0.80;;;;;;;;;;5091531;28;20078;-72
2023/05/10 08:21:13;;;;;;;1.73;1.02;;;21.40;91.90;;;;;;5094274;28;20481;-61
2023/05/10 08:23:39;;;;;;;2.15;1.10;;;;;;;;;;5094326;28;20394;-64
2023/05/10 08:26:05;;;;;;;1.40;0.95;;;21.00;91.80;;;;;;5092714;28;20055;-65
2023/05/10 08:28:31;;;;;;;1.40;0.82;;;;;;;;;;5095346;28;20044;-64
2023/05/10 08:30:57;;;;;;;3.00;1.23;;;21.30;91.80;;;;;;5094650;28;20567;-62
2023/05/10 08:33:23;;;;;;;2.40;0.90;;;21.30;91.90;;;;;;5095059;28;20044;-62
2023/05/10 08:35:48;;;;;;;2.80;1.25;;;21.30;91.80;;;;;;5089363;28;20133;-62
2023/05/10 08:38:15;;;;;;;2.00;1.08;;;;;;;;;;5093489;28;20048;-62
2023/05/10 08:40:42;;;;;;;3.70;1.08;;;20.30;90.20;;;;;;5098026;28;20398;-62
2023/05/10 08:43:09;;;;;;;4.70;1.33;;;21.20;91.80;;;;;;5099960;28;20040;-61
2023/05/10 08:45:39;;;;;;;1.88;1.00;;;21.30;91.90;;;;;;5075543;28;20056;-65
2023/05/10 08:48:06;;;;;;;3.45;1.52;;;21.40;90.40;;;;;;5071527;28;20055;-65
2023/05/10 08:50:33;;;;;;;3.95;1.52;;;21.10;91.80;;;;;;5093663;28;20115;-64
2023/05/10 08:53:01;;;;;;;3.58;1.50;;;21.30;91.90;;;;;;5070607;28;20110;-67
2023/05/10 08:55:27;;;;;;;3.20;1.48;;;21.20;91.80;;;;;;5073072;28;20390;-68
2023/05/10 08:57:53;;;;;;;3.15;1.52;;;21.20;91.80;;;;;;5072864;28;20132;-67
2023/05/10 09:00:20;;;;;;;4.13;1.73;;;21.20;91.80;;;;;;5070695;28;20119;-68
2023/05/10 09:02:46;;;;;;;5.25;1.63;;;;;;;;;;5070624;28;20130;-64
2023/05/10 09:05:12;;;;;;;4.57;1.65;;;21.20;90.30;;;;;;5065945;28;20124;-62
2023/05/10 09:07:38;;;;;;;2.90;1.42;;;21.30;91.90;;;;;;5073956;28;20067;-63
2023/05/10 09:10:04;;;;;;;4.53;1.60;;;21.20;91.90;;;;;;5072720;28;20045;-64
2023/05/10 09:12:30;;;;;;;6.97;1.52;;;21.30;91.90;;;;;;5080505;28;20072;-61
2023/05/10 09:14:56;;;;;;;2.90;1.60;;;21.40;90.60;;;;;;5057383;28;20090;-61
2023/05/10 09:17:23;;;;;;;6.75;1.70;;;21.40;91.90;;;;;;5072883;28;20044;-66
2023/05/10 09:19:49;;;;;;;5.05;1.60;;;21.40;91.90;;;;;;5050818;28;20513;-66
2023/05/10 09:22:15;;;;;;;3.63;1.73;;;21.30;91.90;;;;;;5072425;28;20041;-66
2023/05/10 09:24:44;;;;;;;3.67;1.55;;;21.20;91.90;;;;;;5073927;28;20909;-66
2023/05/10 09:27:11;;;;;;;2.97;1.45;;;21.30;91.90;;;;;;5072522;28;20048;-66
2023/05/10 09:29:41;;;;;;;3.97;1.55;;;21.10;89.90;;;;;;5056117;28;20486;-62
2023/05/10 09:32:07;;;;;;;3.85;1.60;;;;;;;;;;5073090;28;20655;-67
2023/05/10 09:34:35;;;;;;;2.33;1.20;;;21.40;91.50;;;;;;5072738;28;20390;-67
2023/05/10 09:37:02;;;;;;;4.93;1.50;;;21.40;90.40;;;;;;5072727;28;20055;-67
2023/05/10 09:39:35;;;;;;;2.83;1.30;;;21.40;91.80;;;;;;5070914;28;20127;-66
2023/05/10 09:42:05;;;;;;;;;;;21.50;90.80;;;;;;5065636;28;20109;-66
2023/05/10 09:44:32;;;;;;;2.78;1.48;;;21.10;91.80;;;;;;5073459;28;19917;-66
2023/05/10 09:46:58;;;;;;;3.20;1.60;;;21.40;91.80;;;;;;5073379;28;20141;-60
2023/05/10 09:49:25;;;;;;;3.28;1.50;;;;;;;;;;5073747;28;20132;-65
2023/05/10 09:52:03;;;;;;;3.15;1.40;;;21.40;91.80;;;;;;5072331;28;20440;-66
2023/05/10 09:54:29;;;;;;;3.00;1.30;;;21.60;91.80;;;;;;5095537;28;20052;-66
2023/05/10 09:56:55;;;;;;;2.67;1.25;;;21.30;91.70;;;;;;5074550;28;20159;-66
2023/05/10 09:59:21;;;;;;;4.22;1.35;;;21.50;91.80;;;;;;5073086;28;20837;-66
2023/05/10 10:01:56;;;;;;;2.90;1.30;;;21.80;91.80;;;;;;5064837;28;20049;-61
2023/05/10 10:04:23;;;;;;;4.38;1.48;;;;;;;;;;5091327;28;20087;-66
2023/05/10 10:07:07;;;;;;;2.38;1.13;;;21.70;91.80;;;;;;5099552;28;20134;-66
2023/05/10 10:09:34;;;;;;;2.50;1.20;;;21.50;90.30;;;;;;5129129;27;20051;-66
2023/05/10 10:12:00;;;;;;;2.75;1.30;;;21.30;90.10;;;;;;5090958;28;20105;-66
2023/05/10 10:25:42;;;;;;;2.50;1.52;;;21.50;91.50;;;;;;5091969;28;20038;-69
2023/05/10 10:28:24;;;;;;;1.85;1.10;;;21.80;91.60;;;;;;5088260;28;20122;-67
2023/05/10 10:30:50;;;;;;;2.13;1.00;;;21.80;91.60;;;;;;5072895;28;20067;-66
2023/05/10 10:33:22;;;;;;;2.13;1.00;;;21.80;91.60;;;;;;5071856;28;20044;-66
2023/05/10 10:35:48;;;;;;;3.17;1.38;;;;;;;;;;5077477;28;20117;-65
2023/05/10 10:38:15;;;;;;;3.20;1.48;;;;;;;;;;5104954;28;20048;-67
2023/05/10 10:40:40;;;;;;;2.53;1.25;;;21.70;91.50;;;;;;5091609;28;20036;-62
2023/05/10 10:43:39;;;;;;;2.63;1.20;;;21.70;91.50;;;;;;5093068;28;20040;-63
2023/05/10 10:46:14;;;;;;;2.45;1.33;;;21.70;88.80;;;;;;5030098;28;20080;-61
2023/05/10 10:48:51;;;;;;;2.72;1.10;;;21.80;91.00;;;;;;5030327;28;20099;-63
2023/05/10 10:51:17;;;;;;;3.85;1.27;;;21.70;91.50;;;;;;5028936;28;20447;-61
2023/05/10 10:53:42;;;;;;;2.25;1.10;;;21.80;90.20;;;;;;5029997;28;20087;-61
2023/05/10 10:56:10;;;;;;;3.15;1.15;;;21.80;91.50;;;;;;5030154;28;20064;-60
2023/05/10 10:58:39;;;;;;;3.00;1.08;;;21.70;91.50;;;;;;5025391;28;20052;-62
2023/05/10 11:01:15;;;;;;;2.88;1.15;;;21.50;91.50;;;;;;5010248;28;20716;-61
2023/05/10 11:03:41;;;;;;;4.20;1.17;;;;;;;;;;5028647;28;20065;-63
2023/05/10 11:06:08;;;;;;;2.15;0.90;;;21.70;91.40;;;;;;5028096;28;20099;-66
2023/05/10 11:08:41;;;;;;;2.53;1.30;;;21.90;91.50;;;;;;5034294;28;20050;-68
2023/05/10 11:11:07;;;;;;;2.42;1.13;;;21.90;91.50;;;;;;5029607;28;20041;-66
2023/05/10 11:13:34;;;;;;;2.63;1.20;;;22.00;91.30;;;;;;5030099;28;20144;-67
2023/05/10 11:16:13;;;;;;;5.05;1.50;;;21.80;91.40;;;;;;5029931;28;20127;-66
2023/05/10 11:18:39;;;;;;;1.50;0.90;;;;;;;;;;5012898;28;20125;-69
2023/05/10 11:21:06;;;;;;;3.88;1.20;;;21.60;91.30;;;;;;5044916;28;20052;-67
2023/05/10 11:23:46;;;;;;;3.13;1.17;;;21.70;91.30;;;;;;5090901;28;20119;-68
2023/05/10 11:26:12;;;;;;;1.80;0.98;;;22.00;91.50;;;;;;5091992;28;20117;-61
2023/05/10 11:28:42;;;;;;;2.33;1.20;;;21.90;91.50;;;;;;5097513;28;20040;-61
2023/05/10 11:31:08;;;;;;;2.80;1.33;;;21.80;91.40;;;;;;5112983;28;20047;-61
2023/05/10 11:33:57;;;;;;;2.47;1.08;;;21.80;91.40;;;;;;5105767;28;20078;-61
2023/05/10 11:36:27;;;;;;;2.45;1.17;;;21.70;91.40;;;;;;5096731;28;20056;-61
2023/05/10 11:38:54;;;;;;;1.83;1.00;;;22.00;91.50;;;;;;5092019;28;20044;-61
2023/05/10 11:41:22;;;;;;;4.10;0.90;;;22.00;91.50;;;;;;5083139;28;20036;-67
2023/05/10 11:43:53;;;;;;;2.65;1.10;;;22.00;88.60;;;;;;5081953;28;20123;-60
2023/05/10 11:46:21;;;;;;;4.43;1.25;;;21.90;91.40;;;;;;5074094;28;20445;-66
2023/05/10 11:48:51;;;;;;;3.33;1.20;;;21.90;89.90;;;;;;5072086;28;20045;-65
2023/05/10 11:51:20;;;;;;;3.65;1.20;;;21.90;91.30;;;;;;5072216;28;20081;-67
2023/05/10 11:53:46;;;;;;;1.48;1.05;;;21.90;91.30;;;;;;5074721;28;20056;-65
2023/05/10 11:56:12;;;;;;;3.90;1.27;;;21.90;91.30;;;;;;5090982;28;20109;-65
2023/05/10 11:58:38;;;;;;;3.83;1.35;;;21.90;91.20;;;;;;5090986;28;20048;-66
2023/05/10 12:01:05;;;;;;;2.63;1.10;;;22.10;91.30;;;;;;5092162;28;20059;-61
2023/05/10 12:03:31;;;;;;;2.95;1.30;;;21.80;91.20;;;;;;5074471;28;20100;-61
2023/05/10 12:05:57;;;;;;;2.55;1.20;;;22.00;91.30;;;;;;5091736;28;20040;-61
2023/05/10 12:08:24;;;;;;;2.00;1.10;;;22.00;91.30;;;;;;5090984;28;20048;-61
2023/05/10 12:10:50;;;;;;;3.90;1.17;;;22.00;91.30;;;;;;5082161;28;20074;-61
2023/05/10 12:13:16;;;;;;;1.63;1.02;;;21.70;91.30;;;;;;5072766;28;20423;-61
2023/05/10 12:15:42;;;;;;;3.08;1.30;;;22.00;91.40;;;;;;5090652;28;20133;-62
2023/05/10 12:18:10;;;;;;;1.75;1.00;;;21.80;89.90;;;;;;5082213;28;20102;-64
2023/05/10 12:20:36;;;;;;;4.28;1.48;;;21.90;91.40;;;;;;5083976;28;20375;-62
2023/05/10 12:23:03;;;;;;;3.75;1.20;;;;;;;;;;5074158;28;20135;-63
2023/05/10 12:25:30;;;;;;;2.35;1.20;;;21.90;90.10;;;;;;5075466;28;20051;-63
2023/05/10 12:27:57;;;;;;;1.52;1.13;;;21.50;91.40;;;;;;5078182;28;20047;-61
2023/05/10 12:30:24;;;;;;;2.58;1.10;;;21.80;91.40;;;;;;5059411;28;20050;-61
2023/05/10 12:32:50;;;;;;;1.58;1.10;;;22.00;91.50;;;;;;5091313;28;20439;-66
2023/05/10 12:35:16;;;;;;;4.50;1.40;;;21.80;91.50;;;;;;5090481;28;20135;-61
2023/05/10 12:37:42;;;;;;;2.90;1.20;;;22.00;91.50;;;;;;5107488;28;20085;-60
2023/05/10 12:40:10;;;;;;;3.83;1.20;;;21.80;91.50;;;;;;5092156;28;20033;-61
2023/05/10 12:42:36;;;;;;;2.17;1.10;;;21.90;91.40;;;;;;5074450;28;20045;-63
2023/05/10 12:45:03;;;;;;;4.47;1.80;;;21.90;91.40;;;;;;5088020;28;20063;-61
2023/05/10 12:47:29;;;;;;;2.80;1.30;;;;;;;;;;5095133;28;20119;-62
2023/05/10 12:49:55;;;;;;;3.85;1.45;;;21.80;91.30;;;;;;5093675;28;20044;-61
2023/05/10 12:52:21;;;;;;;3.08;1.40;;;22.00;91.40;;;;;;5057485;28;20099;-61
2023/05/10 12:54:47;;;;;;;3.40;1.30;;;21.90;91.40;;;;;;5074453;28;20088;-61
2023/05/10 12:57:13;;;;;;;2.72;1.20;;;22.00;91.30;;;;;;5077067;28;20052;-61
2023/05/10 12:59:39;;;;;;;2.83;1.10;;;;;;;;;;5095089;28;20036;-66
2023/05/10 13:02:05;;;;;;;2.28;1.30;;;22.10;91.40;;;;;;5075335;28;20041;-62
2023/05/10 13:04:31;;;;;;;1.83;1.10;;;22.00;91.30;;;;;;5090497;28;20047;-61
2023/05/10 13:06:58;;;;;;;2.60;1.30;;;22.00;91.30;;;;;;5095254;28;20048;-61
2023/05/10 13:09:26;;;;;;;1.83;1.30;;;21.90;91.30;;;;;;5093089;28;20451;-61
2023/05/10 13:11:53;;;;;;;3.05;1.30;;;22.10;91.30;;;;;;5094333;28;20393;-61
2023/05/10 13:14:20;;;;;;;1.85;1.30;;;;;;;;;;5093270;28;20414;-61
2023/05/10 13:16:46;;;;;;;2.85;1.30;;;21.80;91.30;;;;;;5094650;28;20111;-61